Latest Weather Observations for Forrest

IDW60801

Issued at 11:03 am WST Friday 19 January 2018 (issued every 30 minutes, with the page automatically refreshed every 10 minutes)

About weather observations | Map of weather stations | Latest weather observations for WA | Other Formats
Station Details ID: 011052 Name: FORREST Lat: -30.85 Lon: 128.11 Height: 159.0 m
Data from the previous 72 hours. | See also: Recent months at Forrest
Date/Time
WST
Temp
°C
App
Temp
°C
Dew
Point
°C
Rel
Hum
%
Delta-T
°C
Wind Press
QNH
hPa
Press
MSL
hPa
Rain since
9am
mm
Dir  Spd
km/h
Gust
km/h
Spd
kts
Gust
kts
19/11:00am 22.7 19.7 17.8 74 3.1 S 30 37 16 20 1014.2 - 0.0
19/10:30am 22.6 20.0 17.7 74 3.1 S 28 37 15 20 1014.0 - 0.0
19/10:00am 22.2 19.3 18.0 77 2.6 S 30 37 16 20 1013.9 - 0.0
19/09:30am 21.0 17.6 17.8 82 2.0 S 32 39 17 21 1014.2 - 0.0
19/09:00am 21.3 17.9 17.7 80 2.2 SSE 32 39 17 21 1014.0 1013.2 0.0
19/08:30am 20.7 18.7 18.3 86 1.5 SSE 26 32 14 17 1014.1 - 0.0
19/08:00am 20.8 18.3 18.0 84 1.7 SSE 28 35 15 19 1014.0 - 0.0
19/07:30am 20.4 17.8 17.8 85 1.6 S 28 39 15 21 1013.5 - 0.0
19/07:00am 20.1 17.5 17.7 86 1.5 S 28 37 15 20 1013.4 - 0.0
19/06:30am 20.1 17.1 17.7 86 1.5 SSE 30 43 16 23 1013.3 - 0.0
19/06:00am 20.0 17.3 17.6 86 1.5 S 28 41 15 22 1013.2 1012.4 0.0
19/05:30am 19.9 17.0 17.9 88 1.2 S 30 37 16 20 1012.7 - 0.0
19/05:00am 20.0 17.4 17.8 87 1.4 S 28 37 15 20 1012.2 - 0.0
19/04:30am 20.3 17.7 17.7 85 1.6 S 28 39 15 21 1011.9 - 0.0
19/04:00am 20.4 17.1 18.0 86 1.5 S 32 41 17 22 1010.9 - 0.0
19/03:30am 20.5 17.0 17.9 85 1.6 S 33 44 18 24 1010.5 - 0.0
19/03:00am 20.7 17.2 17.9 84 1.7 S 33 48 18 26 1010.3 1009.5 0.0
19/02:30am 20.7 17.4 17.9 84 1.7 S 32 41 17 22 1010.5 - 0.0
19/02:00am 20.8 17.5 18.0 84 1.7 S 32 41 17 22 1010.0 - 0.0
19/01:30am 20.8 17.6 18.2 85 1.6 S 32 43 17 23 1010.0 - 0.0
19/01:00am 20.7 17.5 18.1 85 1.6 S 32 44 17 24 1009.6 - 0.0
19/12:30am 20.8 17.6 18.2 85 1.6 S 32 43 17 23 1009.6 - 0.0
19/12:00am 20.9 17.7 18.1 84 1.8 S 32 41 17 22 1009.8 1009.0 0.0
 
Date/Time
WST
Temp
°C
App
Temp
°C
Dew
Point
°C
Rel
Hum
%
Delta-T
°C
Wind Press
QNH
hPa
Press
MSL
hPa
Rain since
9am
mm
Dir  Spd
km/h
Gust
km/h
Spd
kts
Gust
kts
18/11:30pm 21.1 17.8 18.3 84 1.8 S 33 41 18 22 1009.9 - 0.0
18/11:00pm 21.4 18.0 18.2 82 2.0 S 33 48 18 26 1010.0 - 0.0
18/10:30pm 21.8 18.6 18.2 80 2.3 S 32 50 17 27 1009.9 - 0.0
18/10:26pm 22.0 19.2 18.2 79 2.4 S 30 48 16 26 1010.0 - 0.0
18/10:00pm 22.2 18.8 18.2 78 2.5 S 33 46 18 25 1009.9 - 0.0
18/09:42pm 22.3 18.5 18.1 77 2.6 S 35 54 19 29 1009.7 - 0.0
18/09:30pm 22.3 18.5 18.1 77 2.6 S 35 48 19 26 1009.6 - 0.0
18/09:00pm 22.8 18.5 17.9 74 3.1 S 37 52 20 28 1009.6 1008.8 0.0
18/08:30pm 23.6 19.7 17.8 70 3.6 S 35 50 19 27 1009.2 - 0.0
18/08:00pm 24.7 20.7 17.7 65 4.4 S 35 50 19 27 1008.7 - 0.0
18/07:30pm 25.6 20.0 17.5 61 5.1 S 43 54 23 29 1008.4 - 0.0
18/07:00pm 27.3 23.0 17.8 56 6.0 S 37 52 20 28 1008.0 - 0.0
18/06:49pm 27.6 22.8 17.5 54 6.4 S 39 57 21 31 1007.6 - 0.0
18/06:30pm 28.8 23.9 17.3 49 7.3 S 39 54 21 29 1007.3 - 0.0
18/06:00pm 30.7 25.4 16.3 42 9.1 S 39 54 21 29 1006.6 1005.8 0.0
18/05:30pm 33.6 27.3 14.6 31 11.8 S 41 54 22 29 1006.0 - 0.0
18/05:00pm 36.1 28.5 13.6 26 13.9 S 46 59 25 32 1004.5 - 0.0
18/04:32pm 39.6 32.6 10.0 17 17.6 SSW 37 50 20 27 1003.9 - 0.0
18/04:30pm 42.4 38.4 8.2 13 20.0 NW 19 32 10 17 1003.9 - 0.0
18/04:00pm 43.7 39.6 2.2 8 22.4 NW 13 19 7 10 1003.6 - 0.0
18/03:30pm 43.9 38.7 2.4 8 22.5 NW 19 32 10 17 1003.7 - 0.0
18/03:00pm 44.9 39.3 1.2 7 23.5 WNW 20 35 11 19 1003.8 1003.0 0.0
18/02:30pm 44.3 37.9 0.8 7 23.1 NW 24 35 13 19 1004.0 - 0.0
18/02:00pm 44.5 39.7 2.8 8 22.8 N 17 32 9 17 1004.1 - 0.0
18/01:30pm 43.2 36.2 1.9 8 22.2 N 28 35 15 19 1004.4 - 0.0
18/01:00pm 43.3 36.7 1.9 8 22.2 N 26 41 14 22 1004.7 - 0.0
18/12:30pm 43.6 37.4 2.1 8 22.4 N 24 41 13 22 1004.8 - 0.0
18/12:00pm 43.0 36.6 3.4 9 21.7 NNW 26 41 14 22 1005.4 1004.5 0.0
18/11:30am 42.5 36.4 3.0 9 21.5 N 24 37 13 20 1005.6 - 0.0
18/11:00am 43.0 36.6 3.4 9 21.7 NW 26 41 14 22 1005.9 - 0.0
18/10:30am 41.7 35.9 2.4 9 21.1 N 22 35 12 19 1006.2 - 0.0
18/10:00am 41.3 35.1 2.1 9 20.9 N 24 37 13 20 1006.4 - 0.0
18/09:30am 40.8 34.4 3.2 10 20.3 N 26 33 14 18 1006.6 - 0.0
18/09:00am 40.3 33.7 4.2 11 19.8 N 28 32 15 17 1006.8 1006.0 0.0
18/08:30am 38.4 31.6 5.1 13 18.3 N 30 37 16 20 1006.9 - 0.0
18/08:00am 35.9 29.1 5.2 15 16.7 NNE 30 37 16 20 1006.8 - 0.0
18/07:30am 33.5 29.3 8.2 21 14.2 NNE 20 28 11 15 1006.8 - 0.0
18/07:00am 31.4 27.4 8.4 24 12.8 NNE 19 24 10 13 1006.8 - 0.0
18/06:30am 28.3 24.5 9.1 30 10.7 NNE 19 22 10 12 1006.8 - 0.0
18/06:00am 25.8 22.9 8.3 33 9.5 NE 13 17 7 9 1006.9 1006.1 0.0
18/05:30am 24.1 21.0 7.3 34 8.9 NE 13 17 7 9 1006.8 - 0.0
18/05:00am 23.6 20.8 6.8 34 8.7 NE 11 13 6 7 1006.6 - 0.0
18/04:30am 23.2 20.3 6.5 34 8.6 NE 11 13 6 7 1006.3 - 0.0
18/04:00am 24.3 21.8 6.6 32 9.2 NE 9 11 5 6 1006.1 - 0.0
18/03:30am 24.9 21.9 6.1 30 9.7 NNE 11 11 6 6 1006.0 - 0.0
18/03:00am 25.9 23.3 6.0 28 10.4 NE 9 13 5 7 1006.1 1005.3 0.0
18/02:30am 26.3 23.7 6.3 28 10.5 NE 9 11 5 6 1006.2 - 0.0
18/02:00am 26.4 24.2 6.4 28 10.5 NE 7 9 4 5 1006.3 - 0.0
18/01:30am 26.5 24.0 6.5 28 10.5 ENE 9 11 5 6 1006.2 - 0.0
18/01:00am 26.5 23.7 7.0 29 10.4 E 11 13 6 7 1006.4 - 0.0
18/12:30am 26.8 23.2 6.8 28 10.6 ENE 15 19 8 10 1006.5 - 0.0
18/12:00am 27.2 22.8 6.6 27 10.9 E 19 24 10 13 1006.5 1005.7 0.0
 
Date/Time
WST
Temp
°C
App
Temp
°C
Dew
Point
°C
Rel
Hum
%
Delta-T
°C
Wind Press
QNH
hPa
Press
MSL
hPa
Rain since
9am
mm
Dir  Spd
km/h
Gust
km/h
Spd
kts
Gust
kts
17/11:30pm 27.3 21.7 5.6 25 11.3 E 24 28 13 15 1006.7 - 0.0
17/11:00pm 26.7 21.8 3.9 23 11.5 E 19 22 10 12 1006.8 - 0.0
17/10:30pm 26.4 21.9 4.2 24 11.2 ENE 17 19 9 10 1007.1 - 0.0
17/10:00pm 26.7 22.1 3.9 23 11.5 ENE 17 17 9 9 1007.1 - 0.0
17/09:30pm 27.1 22.9 3.6 22 11.8 E 15 15 8 8 1007.2 - 0.0
17/09:00pm 28.2 23.6 3.8 21 12.4 E 17 19 9 10 1007.1 1006.3 0.0
17/08:30pm 28.9 24.3 3.7 20 12.8 ENE 17 17 9 9 1007.0 - 0.0
17/08:00pm 29.4 25.1 3.4 19 13.2 ENE 15 17 8 9 1007.0 - 0.0
17/07:30pm 30.9 26.2 3.0 17 14.2 ENE 17 19 9 10 1006.7 - 0.0
17/07:00pm 32.9 28.0 1.9 14 15.7 ENE 17 19 9 10 1006.5 - 0.0
17/06:30pm 35.3 30.9 2.7 13 17.0 NE 15 17 8 9 1006.4 - 0.0
17/06:00pm 38.1 33.3 2.5 11 18.8 ENE 17 26 9 14 1006.1 1005.3 0.0
17/05:30pm 39.1 33.6 1.9 10 19.5 ENE 20 28 11 15 1005.9 - 0.0
17/05:00pm 39.5 34.3 2.2 10 19.7 NNE 19 28 10 15 1005.8 - 0.0
17/04:30pm 39.9 33.0 2.5 10 19.9 NE 28 39 15 21 1005.7 - 0.0
17/04:00pm 40.1 34.9 2.7 10 20.0 NE 19 33 10 18 1005.9 - 0.0
17/03:30pm 40.0 33.1 2.6 10 19.9 NE 28 41 15 22 1006.1 - 0.0
17/03:00pm 40.2 33.7 2.8 10 20.1 ENE 26 35 14 19 1006.3 1005.5 0.0
17/02:30pm 39.6 35.5 2.3 10 19.7 NNE 13 32 7 17 1006.7 - 0.0
17/02:00pm 40.0 35.2 2.6 10 19.9 NNE 17 33 9 18 1007.1 - 0.0
17/01:30pm 39.3 34.4 2.1 10 19.6 NNE 17 28 9 15 1007.4 - 0.0
17/01:00pm 39.0 33.7 1.9 10 19.5 ENE 19 30 10 16 1007.7 - 0.0
17/12:30pm 38.9 33.6 1.8 10 19.4 N 19 30 10 16 1008.1 - 0.0
17/12:00pm 38.8 32.0 3.1 11 19.1 N 28 39 15 21 1008.4 1007.6 0.0
17/11:30am 38.1 30.7 3.8 12 18.4 N 32 41 17 22 1008.8 - 0.0
17/11:00am 37.8 30.7 5.7 14 17.7 N 32 41 17 22 1009.2 - 0.0
17/10:30am 37.5 30.2 5.5 14 17.6 N 33 46 18 25 1009.5 - 0.0
17/10:00am 37.8 30.6 5.7 14 17.7 N 33 48 18 26 1009.8 - 0.0
17/09:30am 35.6 28.6 6.8 17 16.0 NNE 33 41 18 22 1010.1 - 0.0
17/09:00am 35.3 29.0 9.7 21 14.9 NE 33 41 18 22 1010.4 1009.6 0.0
17/08:33am 34.0 27.9 9.9 23 13.9 NE 32 50 17 27 1010.6 - 0.0
17/08:30am 34.0 27.9 9.9 23 13.9 NE 32 39 17 21 1010.6 - 0.0
17/08:00am 32.5 27.1 12.2 29 12.1 NE 32 41 17 22 1010.7 - 0.0
17/07:30am 30.9 25.5 12.3 32 11.0 NE 32 39 17 21 1010.9 - 0.0
17/07:00am 26.7 23.5 13.1 43 8.0 ENE 22 28 12 15 1011.2 - 0.0
17/06:30am 25.5 20.7 13.0 46 7.3 ENE 30 39 16 21 1011.1 - 0.0
17/06:00am 24.2 21.4 13.1 50 6.5 ENE 20 28 11 15 1011.3 1010.6 0.0
17/05:30am 22.5 20.7 13.3 56 5.3 E 15 19 8 10 1011.1 - 0.0
17/05:00am 21.1 19.7 13.5 62 4.4 E 13 17 7 9 1010.6 - 0.0
17/04:30am 20.0 18.3 13.5 66 3.7 E 15 17 8 9 1010.5 - 0.0
17/04:00am 19.5 17.9 13.9 70 3.2 E 15 17 8 9 1010.4 - 0.0
17/03:30am 19.8 19.0 14.0 69 3.4 E 11 13 6 7 1010.3 - 0.0
17/03:00am 20.1 18.9 14.0 68 3.6 E 13 17 7 9 1010.3 1009.5 0.0
17/02:30am 20.4 18.9 14.3 68 3.6 E 15 17 8 9 1010.5 - 0.0
17/02:00am 20.7 18.9 14.4 67 3.7 E 17 22 9 12 1010.5 - 0.0
17/01:30am 21.2 17.9 14.1 64 4.2 E 24 28 13 15 1010.7 - 0.0
17/01:00am 21.6 19.1 14.0 62 4.4 E 20 24 11 13 1011.2 - 0.0
17/12:30am 21.9 18.1 13.5 59 4.9 E 26 30 14 16 1011.2 - 0.0
17/12:00am 21.9 19.8 13.5 59 4.9 E 17 20 9 11 1011.5 1010.8 0.0
 
Date/Time
WST
Temp
°C
App
Temp
°C
Dew
Point
°C
Rel
Hum
%
Delta-T
°C
Wind Press
QNH
hPa
Press
MSL
hPa
Rain since
9am
mm
Dir  Spd
km/h
Gust
km/h
Spd
kts
Gust
kts
16/11:30pm 21.8 19.8 13.9 61 4.6 ESE 17 19 9 10 1011.9 - 0.0
16/11:00pm 22.1 20.2 14.2 61 4.6 ESE 17 20 9 11 1012.3 - 0.0
16/10:30pm 22.6 20.9 14.7 61 4.7 ESE 17 20 9 11 1012.5 - 0.0
16/10:00pm 23.2 21.1 14.7 58 5.1 ESE 19 24 10 13 1012.7 - 0.0
16/09:30pm 23.9 21.2 14.6 56 5.6 ESE 22 28 12 15 1013.0 - 0.0
16/09:00pm 24.8 21.3 14.6 53 6.1 SE 26 32 14 17 1013.0 1012.2 0.0
16/08:30pm 25.6 22.2 14.7 51 6.6 SE 26 32 14 17 1013.0 - 0.0
16/08:00pm 26.5 22.8 14.9 49 7.0 ESE 28 32 15 17 1012.9 - 0.0
16/07:30pm 27.5 23.9 15.2 47 7.5 ESE 28 33 15 18 1012.9 - 0.0
16/07:00pm 28.6 24.3 15.5 45 8.1 SE 32 37 17 20 1012.9 - 0.0
16/06:30pm 29.8 26.2 16.2 43 8.5 SE 30 37 16 20 1012.6 - 0.0
16/06:00pm 31.1 26.8 15.5 39 9.7 SE 32 37 17 20 1012.4 1011.6 0.0
16/05:49pm 31.5 27.8 15.0 36 10.2 SE 28 35 15 19 1012.3 - 0.0
16/05:30pm 33.6 30.3 4.3 16 15.5 ENE 11 17 6 9 1012.2 - 0.0
16/05:00pm 34.1 30.3 3.8 15 15.9 E 13 19 7 10 1012.1 - 0.0
16/04:30pm 34.2 31.3 4.8 16 15.7 NE 9 13 5 7 1012.1 - 0.0
16/04:00pm 34.3 31.1 4.9 16 15.8 NE 11 17 6 9 1012.2 - 0.0
16/03:30pm 34.3 31.3 4.0 15 16.0 NE 9 13 5 7 1012.2 - 0.0
16/03:00pm 34.2 30.0 3.9 15 16.0 NE 15 24 8 13 1012.5 1011.7 0.0
16/02:30pm 34.0 30.1 5.5 17 15.4 NNE 15 24 8 13 1012.8 - 0.0
16/02:00pm 34.0 29.2 4.6 16 15.6 NNE 19 28 10 15 1013.1 - 0.0
16/01:30pm 34.8 30.1 6.2 17 15.7 NE 20 30 11 16 1013.4 - 0.0
16/01:00pm 33.9 29.8 6.3 18 15.1 NE 17 26 9 14 1013.7 - 0.0
16/12:30pm 33.6 29.0 8.3 21 14.3 ENE 22 30 12 16 1013.9 - 0.0
16/12:00pm 34.3 30.4 9.5 22 14.3 ENE 20 32 11 17 1014.2 1013.4 0.0
16/11:30am 32.7 28.6 10.1 25 13.0 ENE 22 32 12 17 1014.7 - 0.0

Other Formats:

Comma delimited format used in spreadsheet applications
http://www.bom.gov.au/fwo/IDW60801/IDW60801.95646.axf

JavaScript Object Notation format (JSON) in row-major order
http://www.bom.gov.au/fwo/IDW60801/IDW60801.95646.json